Time;durP1;ratioP1;P1;durP2;ratioP2;P2;SDS_P1;SDS_P2;PMS_P1;PMS_P2;Temp;Humidity;BMP_temperature;BMP_pressure;BME280_temperature;BME280_humidity;BME280_pressure;Samples;Min_cycle;Max_cycle;Signal;HPM_P1;HPM_P2
2021/04/04 00:21:11;;;;;;;10.90;5.60;;;;;;;-0.21;100.00;100879.84;20871887;27;21381;-62
2021/04/04 00:51:03;;;;;;;11.40;6.40;;;;;;;-0.29;100.00;100881.69;20890640;27;20700;-64
2021/04/04 02:21:00;;;;;;;9.13;4.53;;;;;;;0.89;100.00;100898.47;21106931;27;20651;-64
2021/04/04 02:31:00;;;;;;;5.63;4.17;;;;;;;0.88;100.00;100888.84;21127328;28;20305;-66
2021/04/04 03:00:57;;;;;;;7.87;4.53;;;;;;;1.06;100.00;100899.09;20984975;27;21088;-61
2021/04/04 03:30:51;;;;;;;8.37;4.60;;;;;;;1.27;100.00;100928.53;20881920;28;20338;-65
2021/04/04 04:20:38;;;;;;;14.60;10.27;;;;;;;1.31;100.00;100936.34;20838826;28;20339;-60
2021/04/04 04:40:40;;;;;;;14.07;9.50;;;;;;;1.20;100.00;100932.16;20976931;27;20642;-61
2021/04/04 04:50:42;;;;;;;13.43;8.90;;;;;;;1.33;100.00;100923.16;20938773;28;20766;-62
2021/04/04 07:20:59;;;;;;;8.00;6.37;;;;;;;4.20;100.00;101010.81;20885513;27;20592;-60
2021/04/04 07:31:00;;;;;;;9.80;6.93;;;;;;;4.62;100.00;101011.38;20859398;28;20247;-59
2021/04/04 07:56:53;;;;;;;10.87;5.97;;;;;;;15.68;100.00;101019.25;20675533;27;79748;-50
2021/04/04 08:15:42;;;;;;;5.00;4.47;;;;;;;7.71;73.81;101005.81;20771022;28;20634;-56
2021/04/04 08:26:04;;;;;;;7.40;5.57;;;;;;;5.49;83.69;101006.94;20772636;28;20252;-59
2021/04/04 08:36:05;;;;;;;6.47;5.03;;;;;;;5.20;90.28;100993.75;20771495;28;20258;-56
2021/04/04 08:46:12;;;;;;;6.17;5.37;;;;;;;5.38;90.87;100978.19;20796221;28;20693;-55
2021/04/04 08:56:14;;;;;;;4.47;3.73;;;;;;;5.56;85.25;100960.81;20775141;28;20550;-57
2021/04/04 09:06:15;;;;;;;3.73;2.90;;;;;;;5.71;75.12;100952.34;20807243;28;20319;-55
2021/04/04 09:16:16;;;;;;;3.87;3.27;;;;;;;6.22;74.28;100945.31;20781260;28;20739;-61
2021/04/04 09:26:24;;;;;;;4.60;3.07;;;;;;;7.01;71.78;100943.13;20726517;28;20240;-54
2021/04/04 09:36:38;;;;;;;3.00;2.70;;;;;;;7.15;74.74;100950.56;20727475;28;20221;-55
2021/04/04 09:46:52;;;;;;;1.60;1.40;;;;;;;6.87;68.21;100934.88;20683916;28;20275;-54
2021/04/04 09:56:59;;;;;;;6.40;4.23;;;;;;;8.18;85.99;100927.56;20736464;28;20225;-57
2021/04/04 10:06:59;;;;;;;3.13;2.10;;;;;;;7.42;65.80;100922.88;20713567;28;20627;-55
2021/04/04 10:17:11;;;;;;;1.80;1.23;;;;;;;8.44;74.35;100904.28;20735015;28;20229;-55
2021/04/04 10:27:28;;;;;;;2.53;1.63;;;;;;;9.02;72.00;100897.91;20712776;28;20315;-53
2021/04/04 10:37:29;;;;;;;6.00;3.47;;;;;;;9.80;82.08;100895.78;20732051;28;20211;-55
2021/04/04 10:47:29;;;;;;;1.58;1.40;;;;;;;10.36;78.89;100879.47;20712723;28;20220;-55
2021/04/04 10:57:31;;;;;;;1.77;1.50;;;;;;;10.19;78.46;100859.03;20727093;28;20213;-55
2021/04/04 11:07:33;;;;;;;2.57;2.03;;;;;;;9.55;74.19;100859.72;20715294;28;20270;-60
2021/04/04 11:17:35;;;;;;;4.67;2.10;;;;;;;9.73;78.42;100842.81;20718931;28;20220;-58
2021/04/04 11:27:53;;;;;;;2.60;1.90;;;;;;;9.78;54.65;100834.56;20659945;28;20236;-62
2021/04/04 11:38:11;;;;;;;4.30;2.20;;;;;;;9.90;55.88;100819.75;20670044;28;20978;-58
2021/04/04 11:48:28;;;;;;;1.37;1.27;;;;;;;9.85;50.03;100803.97;20615862;28;20232;-58
2021/04/04 11:58:29;;;;;;;1.93;1.40;;;;;;;10.03;74.15;100786.97;20595701;28;20338;-58
2021/04/04 12:08:29;;;;;;;1.33;1.13;;;;;;;9.85;61.58;100765.78;20611686;28;20229;-59
2021/04/04 12:18:30;;;;;;;1.40;1.30;;;;;;;9.93;70.53;100747.56;20592544;28;20221;-58
2021/04/04 12:28:30;;;;;;;2.63;1.30;;;;;;;10.05;65.33;100738.91;20613176;28;20268;-57
2021/04/04 12:38:35;;;;;;;1.40;1.30;;;;;;;10.44;60.78;100723.34;20595791;28;20213;-61
2021/04/04 12:48:39;;;;;;;1.23;1.20;;;;;;;10.06;60.63;100717.47;20611581;28;20355;-63
2021/04/04 12:58:41;;;;;;;0.87;0.87;;;;;;;10.75;62.85;100705.56;20534945;28;20224;-64
2021/04/04 13:08:42;;;;;;;1.37;1.23;;;;;;;10.76;57.91;100685.91;20612624;28;20221;-59
2021/04/04 13:18:45;;;;;;;2.20;1.07;;;;;;;10.96;62.04;100680.28;20638873;28;20229;-61
2021/04/04 13:29:00;;;;;;;1.63;1.30;;;;;;;11.28;47.12;100667.63;20606838;28;20221;-59
2021/04/04 13:39:04;;;;;;;3.27;1.80;;;;;;;11.34;50.84;100655.72;20637942;28;20687;-62
2021/04/04 13:49:10;;;;;;;1.30;1.03;;;;;;;10.06;49.55;100649.97;20627243;28;20273;-60
2021/04/04 13:59:28;;;;;;;2.00;1.40;;;;;;;9.85;53.33;100637.84;20648182;28;20756;-61
2021/04/04 14:09:35;;;;;;;2.10;1.33;;;;;;;9.70;52.78;100631.56;20633501;28;20229;-58
2021/04/04 14:19:36;;;;;;;1.73;1.57;;;;;;;9.22;52.97;100605.81;20651498;28;20312;-60
2021/04/04 14:29:37;;;;;;;1.53;1.43;;;;;;;9.14;55.61;100608.03;20638565;28;20228;-62
2021/04/04 14:39:38;;;;;;;2.67;1.50;;;;;;;9.63;56.55;100599.09;20665516;28;20257;-57
2021/04/04 14:49:38;;;;;;;1.30;1.20;;;;;;;9.35;54.72;100590.91;20644297;28;20307;-59
2021/04/04 14:59:39;;;;;;;2.63;1.90;;;;;;;9.28;52.73;100571.75;20634206;28;20223;-57
2021/04/04 15:09:39;;;;;;;2.87;1.80;;;;;;;9.08;53.19;100571.09;20648650;28;20595;-57
2021/04/04 15:19:40;;;;;;;3.07;2.03;;;;;;;9.03;52.71;100553.59;20626499;28;20254;-57
2021/04/04 15:29:40;;;;;;;3.73;1.97;;;;;;;8.66;55.08;100545.84;20647811;28;20528;-56
2021/04/04 15:39:41;;;;;;;6.40;1.60;;;;;;;8.72;56.41;100548.16;20623597;28;20224;-56
2021/04/04 15:49:41;;;;;;;2.10;1.70;;;;;;;8.33;55.88;100529.00;20640047;28;20234;-55
2021/04/04 15:59:42;;;;;;;1.27;1.17;;;;;;;8.08;58.40;100508.94;20630665;28;20616;-61
2021/04/04 16:09:43;;;;;;;162.13;87.77;;;;;;;8.18;57.04;100494.25;20638862;28;20276;-57
2021/04/04 16:19:43;;;;;;;32.27;18.50;;;;;;;7.91;56.45;100477.03;20637366;28;20297;-55
2021/04/04 16:29:44;;;;;;;51.13;33.17;;;;;;;7.73;59.87;100470.03;20651694;28;20678;-53
2021/04/04 16:39:44;;;;;;;28.93;22.50;;;;;;;7.35;59.83;100443.56;20660640;28;20551;-52
2021/04/04 16:49:45;;;;;;;9.93;7.80;;;;;;;7.12;59.74;100452.66;20644795;28;20226;-51
2021/04/04 16:59:45;;;;;;;7.33;5.33;;;;;;;6.76;61.45;100444.59;20659496;28;20678;-54
2021/04/04 17:09:46;;;;;;;5.07;3.10;;;;;;;6.46;64.12;100443.38;20639633;28;20236;-55
2021/04/04 17:19:46;;;;;;;20.03;12.17;;;;;;;6.03;63.49;100432.06;20652579;28;20603;-52
2021/04/04 17:29:47;;;;;;;8.57;5.87;;;;;;;5.72;65.67;100415.72;20661543;28;20228;-52
2021/04/04 17:39:49;;;;;;;11.60;7.10;;;;;;;5.24;67.43;100403.63;20656645;28;20258;-53
2021/04/04 17:49:49;;;;;;;10.13;6.63;;;;;;;4.82;68.80;100398.28;20643698;28;20460;-59
2021/04/04 17:59:51;;;;;;;7.20;5.33;;;;;;;4.49;70.21;100392.50;20643000;28;20225;-52
2021/04/04 18:20:12;;;;;;;8.00;5.33;;;;;;;4.01;72.60;100375.84;20633672;28;20219;-56
2021/04/04 18:30:14;;;;;;;9.37;5.90;;;;;;;3.80;72.69;100364.28;20653749;28;20232;-51
2021/04/04 18:40:15;;;;;;;5.93;4.43;;;;;;;3.60;74.52;100359.72;20633091;28;20229;-52
2021/04/04 18:50:16;;;;;;;6.53;4.93;;;;;;;3.37;75.62;100338.56;20650111;28;20226;-51
2021/04/04 19:10:14;;;;;;;7.10;5.03;;;;;;;3.08;76.88;100327.22;21102995;27;975280;-53
2021/04/04 19:20:16;;;;;;;11.60;6.70;;;;;;;2.98;77.25;100310.00;21113990;28;20220;-53
2021/04/04 19:30:23;;;;;;;10.83;7.70;;;;;;;2.91;77.43;100305.81;21119637;28;20220;-52
2021/04/04 19:40:24;;;;;;;9.10;6.43;;;;;;;2.77;79.25;100292.28;21118762;28;20222;-60
2021/04/04 19:50:24;;;;;;;10.03;6.77;;;;;;;2.62;80.51;100274.31;21105437;28;20299;-52
2021/04/04 20:00:25;;;;;;;9.88;6.70;;;;;;;2.53;80.72;100259.69;21122002;28;20222;-52
2021/04/04 20:10:26;;;;;;;10.83;7.27;;;;;;;2.39;80.97;100246.97;21102977;28;20230;-52
2021/04/04 20:20:26;;;;;;;10.83;7.23;;;;;;;2.29;81.92;100232.38;21065493;28;20241;-52
2021/04/04 20:30:30;;;;;;;8.00;5.73;;;;;;;2.22;82.22;100219.44;21044504;28;20442;-53
2021/04/04 20:50:27;;;;;;;6.37;5.30;;;;;;;2.24;83.00;100189.53;20952474;27;20623;-51
2021/04/04 21:00:27;;;;;;;11.00;6.00;;;;;;;2.21;83.33;100179.09;20956859;27;20707;-52
2021/04/04 21:20:25;;;;;;;7.57;5.40;;;;;;;2.02;83.64;100141.97;20955067;27;20532;-54
2021/04/04 21:30:27;;;;;;;9.47;5.37;;;;;;;1.97;84.34;100129.88;20962785;27;20757;-53
2021/04/04 21:40:29;;;;;;;8.53;5.40;;;;;;;1.95;84.75;100102.75;20938990;27;20222;-52
2021/04/04 21:50:29;;;;;;;7.77;5.00;;;;;;;1.96;85.37;100088.66;20983449;27;21011;-52
2021/04/04 22:00:30;;;;;;;6.40;5.27;;;;;;;2.04;84.73;100061.22;20938130;27;20227;-51
2021/04/04 22:10:31;;;;;;;7.30;5.10;;;;;;;2.16;84.56;100044.16;20959586;27;20227;-51
2021/04/04 22:20:32;;;;;;;7.43;5.23;;;;;;;1.92;83.28;99981.84;20941723;27;20219;-52
2021/04/04 22:30:34;;;;;;;8.77;5.77;;;;;;;2.25;83.05;100012.22;20903914;27;20216;-51
2021/04/04 22:40:34;;;;;;;6.90;5.30;;;;;;;2.31;83.35;99988.31;20893032;28;20231;-52
2021/04/04 22:50:35;;;;;;;9.90;6.40;;;;;;;2.31;82.84;99974.28;20886597;27;20231;-51
2021/04/04 23:00:35;;;;;;;9.52;6.82;;;;;;;2.35;81.79;99945.16;20900193;28;20827;-52
2021/04/04 23:20:32;;;;;;;10.20;6.17;;;;;;;2.34;82.84;99917.13;20889505;27;20545;-52
2021/04/04 23:30:44;;;;;;;8.23;6.10;;;;;;;2.31;83.39;99896.16;20858359;28;20219;-52
2021/04/04 23:40:45;;;;;;;8.67;6.40;;;;;;;2.31;83.32;99877.72;20879666;28;20223;-52
2021/04/04 23:50:46;;;;;;;11.70;6.93;;;;;;;2.33;82.46;99852.22;20861158;28;20229;-53
